Paragould, AR

3:02 AM CDT on August 24, 2016 (GMT -0500)
Near AMMC Hospital | | Change Station

Elev 338 ft 36.05 °N, 90.50 °W | Updated 19 seconds ago

Clear
Clear
76.1 °F
Feels Like 76 °F
N
0.7
Wind Variable Wind from South
Gusts 0.7 mph

Today
High -- | Low -- °F
--% Chance of Precip.
Yesterday
High -- | Low -- °F
Precip. -- in
Pressure 30.10 in
Visibility 10.0 miles
Clouds Clear
Heat Index 76 °F
Dew Point 74 °F
Humidity 94%
Rainfall 0.00 in
Snow Depth Not available.
6:27 AM 7:39 PM
Waning Gibbous, 59% visible
METAR KJBR 240753Z AUTO 22004KT 10SM CLR 24/22 A3011 RMK AO2 SLP193 T02390222
Pressure 30.10 in
Visibility 10.0 miles
Clouds Clear
Heat Index 76 °F
Dew Point 74 °F
Humidity 94%
Rainfall 0.00 in
Snow Depth Not available.
6:27 AM 7:39 PM
Waning Gibbous, 59% visible
METAR KJBR 240753Z AUTO 22004KT 10SM CLR 24/22 A3011 RMK AO2 SLP193 T02390222

10-Day Weather Forecast

Almanac

Astronomy

Aug. 24, 2016 Rise Set
Actual Time
Civil Twilight
Nautical Twilight
Astronomical Twilight
Moon
Length of Visible Light
Length of Day
Tomorrow will be .
, % of the Moon is Illuminated

Today's Extremes

State Highs State Lows

Community

WunderPhotos

Upload Photos

1,934,552 photos uploaded!

WunderBlog® & News

Nearby

Air Quality

  Air Quality AQ Index Pollutant
Not available.

Snow Depth

Station Depth Elevation

Earthquake Activity

City Distance Mag. Time & Date
Minimum magnitude displayed is 2.5.

Coastal Water Temperatures

Place Temperature

Stations

Nearby Weather Stations

Station Location Temp. Windchill Dew Point Humidity Wind Precip. Elev Updated Type
                   

Watches & Warnings

There are currently no watches in effect.